Time;durP1;ratioP1;P1;durP2;ratioP2;P2;SDS_P1;SDS_P2;PMS_P1;PMS_P2;Temp;Humidity;BMP_temperature;BMP_pressure;BME280_temperature;BME280_humidity;BME280_pressure;Samples;Min_cycle;Max_cycle;Signal;HPM_P1;HPM_P2
2021/07/05 00:02:43;;;;;;;74.63;53.33;;;;;;;;;;4941699;28;20050;-93
2021/07/05 00:05:28;;;;;;;77.82;55.67;;;;;;;;;;4938588;28;20054;-91
2021/07/05 00:08:13;;;;;;;76.97;55.10;;;;;;;;;;4906974;28;20698;-92
2021/07/05 00:11:01;;;;;;;84.68;57.15;;;;;;;;;;4938861;28;21474;-93
2021/07/05 00:13:46;;;;;;;86.97;56.85;;;;;;;;;;4943977;28;20051;-92
2021/07/05 00:16:31;;;;;;;87.40;56.72;;;;;;;;;;4934832;28;20047;-94
2021/07/05 00:19:16;;;;;;;84.03;58.03;;;;;;;;;;4954273;28;20050;-90
2021/07/05 00:22:23;;;;;;;86.70;62.13;;;;;;;;;;5272765;22;20447;-90
2021/07/05 00:25:00;;;;;;;87.30;61.13;;;;;;;;;;5581374;22;20049;-96
2021/07/05 00:27:47;;;;;;;92.90;63.63;;;;;;;;;;5039917;28;20032;-88
2021/07/05 00:30:34;;;;;;;101.13;64.25;;;;;;;;;;5041335;28;20037;-93
2021/07/05 00:33:23;;;;;;;92.88;62.72;;;;;;;;;;5050913;28;20042;-92
2021/07/05 00:36:10;;;;;;;91.47;60.45;;;;;;;;;;5058978;28;20036;-94
2021/07/05 00:38:56;;;;;;;78.45;55.97;;;;;;;;;;5051304;28;20041;-93
2021/07/05 00:41:43;;;;;;;82.47;54.22;;;;;;;;;;5031968;28;20040;-91
2021/07/05 00:44:28;;;;;;;79.85;56.85;;;;;;;;;;5037451;28;20119;-84
2021/07/05 00:47:14;;;;;;;74.07;53.17;;;;;;;;;;5022601;28;20071;-87
2021/07/05 00:50:00;;;;;;;75.38;54.42;;;;;;;;;;5025941;28;20053;-82
2021/07/05 00:52:45;;;;;;;86.75;62.80;;;;;;;;;;5033047;28;20537;-86
2021/07/05 00:55:32;;;;;;;80.88;59.75;;;;;;;;;;4990724;28;20405;-83
2021/07/05 00:58:17;;;;;;;81.50;57.90;;;;;;;;;;5017795;28;20282;-82
2021/07/05 01:01:02;;;;;;;76.53;54.63;;;;;;;;;;5034950;28;20052;-84
2021/07/05 01:03:49;;;;;;;77.15;54.10;;;;;;;;;;5024231;28;20529;-83
2021/07/05 01:06:35;;;;;;;81.28;56.47;;;;;;;;;;5055995;28;20513;-82
2021/07/05 01:09:20;;;;;;;79.57;57.15;;;;;;;;;;5029756;28;20040;-85
2021/07/05 01:12:05;;;;;;;80.55;58.85;;;;;;;;;;5032460;28;20052;-87
2021/07/05 01:14:50;;;;;;;77.70;57.40;;;;;;;;;;5039266;28;20044;-85
2021/07/05 01:17:36;;;;;;;81.45;60.92;;;;;;;;;;5029761;28;20044;-86
2021/07/05 01:20:22;;;;;;;88.68;61.75;;;;;;;;;;5033522;28;20047;-86
2021/07/05 01:23:08;;;;;;;87.15;63.83;;;;;;;;;;5041574;28;20037;-87
2021/07/05 01:25:54;;;;;;;86.82;62.13;;;;;;;;;;5038985;28;20051;-88
2021/07/05 01:28:39;;;;;;;84.65;63.00;;;;;;;;;;5005581;28;20706;-85
2021/07/05 01:31:24;;;;;;;86.50;62.75;;;;;;;;;;5054078;28;20044;-89
2021/07/05 01:34:09;;;;;;;89.53;66.28;;;;;;;;;;5032997;28;20044;-85
2021/07/05 01:36:57;;;;;;;85.35;62.85;;;;;;;;;;5010657;28;20035;-84
2021/07/05 01:39:43;;;;;;;92.88;68.15;;;;;;;;;;5029143;28;20040;-84
2021/07/05 01:42:29;;;;;;;96.97;74.60;;;;;;;;;;5015768;28;20064;-83
2021/07/05 01:45:16;;;;;;;93.43;70.88;;;;;;;;;;5028648;28;20048;-83
2021/07/05 01:48:01;;;;;;;89.35;67.75;;;;;;;;;;5042748;28;20052;-84
2021/07/05 01:50:46;;;;;;;98.65;75.30;;;;;;;;;;5028937;28;20033;-82
2021/07/05 01:53:31;;;;;;;99.78;72.50;;;;;;;;;;5033586;28;20044;-85
2021/07/05 01:56:17;;;;;;;104.97;79.43;;;;;;;;;;5027160;28;20054;-86
2021/07/05 01:59:03;;;;;;;105.65;75.50;;;;;;;;;;5036641;28;20510;-84
2021/07/05 02:01:50;;;;;;;101.10;73.18;;;;;;;;;;5045988;28;20053;-85
2021/07/05 02:04:35;;;;;;;96.57;73.57;;;;;;;;;;5031205;28;20052;-83
2021/07/05 02:07:22;;;;;;;93.30;68.55;;;;;;;;;;5025611;28;20379;-85
2021/07/05 02:10:09;;;;;;;89.95;69.10;;;;;;;;;;5029714;28;20537;-85
2021/07/05 02:12:55;;;;;;;92.53;69.85;;;;;;;;;;5036876;28;20044;-84
2021/07/05 02:15:41;;;;;;;82.93;60.78;;;;;;;;;;5028804;28;20042;-86
2021/07/05 02:18:27;;;;;;;89.72;63.22;;;;;;;;;;5025656;28;20049;-83
2021/07/05 02:21:12;;;;;;;72.70;52.90;;;;;;;;;;5051896;28;20041;-84
2021/07/05 02:23:59;;;;;;;75.55;52.42;;;;;;;;;;5034336;28;20491;-85
2021/07/05 02:26:44;;;;;;;72.85;49.08;;;;;;;;;;4994950;28;20476;-86
2021/07/05 02:29:29;;;;;;;70.68;46.03;;;;;;;;;;5027390;28;20041;-86
2021/07/05 02:32:15;;;;;;;68.40;49.05;;;;;;;;;;5020042;28;20404;-84
2021/07/05 02:35:01;;;;;;;74.18;47.40;;;;;;;;;;5031082;28;20547;-85
2021/07/05 02:37:47;;;;;;;70.30;47.72;;;;;;;;;;5026566;28;20040;-83
2021/07/05 02:40:33;;;;;;;69.90;49.08;;;;;;;;;;5005264;28;20533;-83
2021/07/05 02:43:19;;;;;;;77.82;50.53;;;;;;;;;;4996570;28;20033;-83
2021/07/05 02:49:14;;;;;;;71.75;45.70;;;;;;;;;;5035063;28;20031;-88
2021/07/05 02:51:59;;;;;;;82.72;52.47;;;;;;;;;;5047336;28;20046;-86
2021/07/05 02:54:46;;;;;;;67.35;46.97;;;;;;;;;;5028768;28;20084;-86
2021/07/05 02:57:31;;;;;;;82.38;54.53;;;;;;;;;;5016537;28;20445;-88
2021/07/05 03:00:21;;;;;;;78.97;54.80;;;;;;;;;;5015614;28;20531;-86
2021/07/05 03:03:06;;;;;;;71.78;50.80;;;;;;;;;;5003220;28;20387;-86
2021/07/05 03:05:54;;;;;;;75.30;49.95;;;;;;;;;;5031200;28;20040;-86
2021/07/05 03:08:42;;;;;;;75.13;54.13;;;;;;;;;;5023301;28;20514;-87
2021/07/05 03:11:30;;;;;;;70.78;45.95;;;;;;;;;;5042985;28;20051;-87
2021/07/05 03:14:16;;;;;;;67.63;43.00;;;;;;;;;;4996868;28;20049;-86
2021/07/05 03:17:02;;;;;;;59.40;38.88;;;;;;;;;;5028374;28;20036;-86
2021/07/05 03:19:46;;;;;;;58.85;38.88;;;;;;;;;;5034174;28;20043;-87
2021/07/05 03:22:32;;;;;;;56.47;38.42;;;;;;;;;;5008323;28;20056;-86
2021/07/05 03:25:18;;;;;;;50.42;33.75;;;;;;;;;;5016027;28;20061;-86
2021/07/05 03:28:04;;;;;;;55.63;33.65;;;;;;;;;;5040496;28;20047;-84
2021/07/05 03:30:50;;;;;;;47.88;32.42;;;;;;;;;;5021515;28;20052;-86
2021/07/05 03:33:37;;;;;;;44.90;31.10;;;;;;;;;;5039684;28;20044;-85
2021/07/05 03:36:23;;;;;;;55.65;38.92;;;;;;;;;;5042860;28;20059;-86
2021/07/05 03:39:08;;;;;;;63.25;43.45;;;;;;;;;;5042588;28;20043;-85
2021/07/05 03:41:53;;;;;;;59.67;42.72;;;;;;;;;;5018236;28;20105;-85
2021/07/05 03:44:38;;;;;;;72.65;51.72;;;;;;;;;;5035415;28;20251;-86
2021/07/05 03:47:23;;;;;;;81.90;56.72;;;;;;;;;;5023392;28;20506;-84
2021/07/05 03:50:09;;;;;;;74.47;54.75;;;;;;;;;;5033652;28;20468;-85
2021/07/05 03:52:55;;;;;;;82.50;59.38;;;;;;;;;;5028923;28;20043;-84
2021/07/05 03:55:40;;;;;;;72.20;49.97;;;;;;;;;;5037263;28;20056;-84
2021/07/05 03:58:25;;;;;;;65.68;45.78;;;;;;;;;;5041957;28;20060;-83
2021/07/05 04:01:10;;;;;;;63.95;44.67;;;;;;;;;;5035785;28;20056;-84
2021/07/05 04:03:55;;;;;;;74.60;52.67;;;;;;;;;;5040380;28;20064;-85
2021/07/05 04:06:40;;;;;;;90.40;64.10;;;;;;;;;;5053259;28;20055;-83
2021/07/05 04:09:26;;;;;;;74.07;51.58;;;;;;;;;;5046089;28;20043;-83
2021/07/05 04:12:12;;;;;;;77.22;56.28;;;;;;;;;;5039061;28;20522;-85
2021/07/05 04:14:57;;;;;;;83.63;56.65;;;;;;;;;;5020256;28;20033;-84
2021/07/05 04:17:42;;;;;;;86.13;62.65;;;;;;;;;;5028915;28;20125;-83
2021/07/05 04:20:27;;;;;;;91.15;67.78;;;;;;;;;;5026720;28;20432;-83
2021/07/05 04:23:12;;;;;;;107.57;76.45;;;;;;;;;;5018236;28;20040;-83
2021/07/05 04:25:59;;;;;;;106.10;78.22;;;;;;;;;;5028000;28;20060;-83
2021/07/05 04:28:44;;;;;;;97.43;71.78;;;;;;;;;;5003973;28;20057;-83
2021/07/05 04:31:29;;;;;;;99.72;72.47;;;;;;;;;;4976673;28;20380;-83
2021/07/05 04:34:14;;;;;;;102.90;71.30;;;;;;;;;;4995657;28;20056;-83
2021/07/05 04:36:59;;;;;;;103.78;75.05;;;;;;;;;;4997457;28;20818;-83
2021/07/05 04:39:44;;;;;;;94.97;66.25;;;;;;;;;;5020226;28;20072;-84
2021/07/05 04:42:29;;;;;;;90.13;64.07;;;;;;;;;;5023918;28;20725;-85
2021/07/05 04:45:15;;;;;;;87.85;59.40;;;;;;;;;;5017286;28;20049;-83
2021/07/05 04:48:02;;;;;;;81.32;56.25;;;;;;;;;;5015892;28;20335;-84
2021/07/05 04:50:48;;;;;;;77.60;52.40;;;;;;;;;;5012254;28;20523;-84
2021/07/05 04:53:33;;;;;;;72.80;48.35;;;;;;;;;;5014216;28;20040;-84
2021/07/05 04:56:18;;;;;;;67.20;44.45;;;;;;;;;;5023499;28;20044;-84
2021/07/05 04:59:04;;;;;;;77.78;49.88;;;;;;;;;;5017070;28;20514;-84
2021/07/05 05:01:49;;;;;;;83.22;52.83;;;;;;;;;;5024991;28;20049;-84
2021/07/05 05:04:35;;;;;;;86.05;53.80;;;;;;;;;;5017916;28;20403;-84
2021/07/05 05:07:20;;;;;;;81.45;53.80;;;;;;;;;;5021786;28;20048;-84
2021/07/05 05:10:08;;;;;;;83.45;52.72;;;;;;;;;;5024309;28;20044;-84
2021/07/05 05:12:53;;;;;;;89.88;58.72;;;;;;;;;;5024940;28;20044;-84
2021/07/05 05:15:38;;;;;;;83.63;56.13;;;;;;;;;;4999881;28;20043;-85
2021/07/05 05:18:23;;;;;;;81.05;51.03;;;;;;;;;;5025774;28;20045;-83
2021/07/05 05:21:08;;;;;;;66.53;46.20;;;;;;;;;;5021049;28;20104;-84
2021/07/05 05:23:54;;;;;;;66.45;48.05;;;;;;;;;;5031429;28;20044;-85
2021/07/05 05:26:39;;;;;;;64.32;43.13;;;;;;;;;;5028387;28;20044;-84
2021/07/05 05:29:24;;;;;;;60.42;43.05;;;;;;;;;;5037060;28;20280;-85
2021/07/05 05:32:11;;;;;;;60.05;42.20;;;;;;;;;;5028154;28;20040;-84
2021/07/05 05:34:56;;;;;;;61.25;46.80;;;;;;;;;;5042505;28;20040;-86
2021/07/05 05:37:41;;;;;;;54.15;39.60;;;;;;;;;;5035471;28;20040;-85
2021/07/05 05:40:26;;;;;;;50.40;36.67;;;;;;;;;;5051902;28;20052;-82
2021/07/05 05:43:13;;;;;;;51.70;37.30;;;;;;;;;;5056264;28;20052;-84
2021/07/05 05:46:01;;;;;;;52.85;38.13;;;;;;;;;;5041299;28;20391;-84
2021/07/05 05:48:49;;;;;;;58.25;39.22;;;;;;;;;;5043603;28;20059;-84
2021/07/05 05:51:36;;;;;;;66.40;44.75;;;;;;;;;;5038295;28;20044;-84
2021/07/05 05:54:21;;;;;;;50.72;37.17;;;;;;;;;;5041920;28;20553;-84
2021/07/05 05:57:08;;;;;;;52.30;40.13;;;;;;;;;;5042441;28;20415;-85
2021/07/05 05:59:54;;;;;;;;;;;;;;;;;;5025202;28;20403;-83
2021/07/05 06:02:39;;;;;;;51.63;36.72;;;;;;;;;;5043129;28;19936;-84
2021/07/05 06:05:24;;;;;;;51.08;37.33;;;;;;;;;;5041488;28;20048;-84
2021/07/05 06:08:09;;;;;;;56.70;39.72;;;;;;;;;;5042870;28;20386;-85
2021/07/05 06:10:54;;;;;;;53.28;39.03;;;;;;;;;;5043864;28;20528;-88
2021/07/05 06:13:40;;;;;;;60.00;42.42;;;;;;;;;;5021376;28;20286;-85
2021/07/05 06:16:25;;;;;;;54.10;38.15;;;;;;;;;;5024480;28;20044;-86
2021/07/05 06:19:10;;;;;;;62.83;41.08;;;;;;;;;;5018405;28;20549;-85
2021/07/05 06:21:55;;;;;;;55.83;40.70;;;;;;;;;;5037148;28;20052;-87
2021/07/05 06:24:41;;;;;;;59.90;45.03;;;;;;;;;;5013568;28;20040;-86
2021/07/05 06:27:26;;;;;;;46.58;33.72;;;;;;;;;;5023477;28;20052;-84
2021/07/05 06:30:12;;;;;;;51.30;35.95;;;;;;;;;;5018706;28;20060;-86
2021/07/05 06:32:57;;;;;;;50.35;34.60;;;;;;;;;;5022262;28;20045;-85
2021/07/05 06:35:42;;;;;;;46.45;33.83;;;;;;;;;;5036456;28;20036;-83
2021/07/05 06:38:27;;;;;;;54.75;36.08;;;;;;;;;;5019313;28;20491;-83
2021/07/05 06:41:12;;;;;;;59.97;34.90;;;;;;;;;;5023544;28;20052;-83
2021/07/05 06:43:58;;;;;;;53.30;33.15;;;;;;;;;;5023931;28;20045;-84
2021/07/05 06:46:44;;;;;;;43.33;33.22;;;;;;;;;;5016756;28;20442;-83
2021/07/05 06:49:31;;;;;;;51.92;35.28;;;;;;;;;;5013723;28;20053;-83
2021/07/05 06:52:16;;;;;;;71.18;39.42;;;;;;;;;;5011283;28;20056;-83
2021/07/05 06:55:02;;;;;;;56.70;39.83;;;;;;;;;;5010781;28;20044;-84
2021/07/05 06:57:49;;;;;;;71.00;39.72;;;;;;;;;;5004960;28;20044;-83
2021/07/05 07:00:34;;;;;;;76.80;43.03;;;;;;;;;;5015639;28;20820;-84
2021/07/05 07:03:22;;;;;;;96.63;53.10;;;;;;;;;;5002577;28;20522;-83
2021/07/05 07:06:07;;;;;;;86.30;41.42;;;;;;;;;;5020123;28;20052;-84
2021/07/05 07:08:52;;;;;;;126.57;52.38;;;;;;;;;;5020653;28;20055;-83
2021/07/05 07:11:38;;;;;;;82.53;43.75;;;;;;;;;;5029926;28;20053;-84
2021/07/05 07:14:25;;;;;;;103.53;53.90;;;;;;;;;;5022406;28;20412;-83
2021/07/05 07:17:23;;;;;;;77.35;42.97;;;;;;;;;;5025966;28;20052;-82
2021/07/05 07:20:10;;;;;;;94.00;48.95;;;;;;;;;;5009174;28;20063;-83
2021/07/05 07:23:05;;;;;;;88.70;42.05;;;;;;;;;;4993113;28;20049;-83
2021/07/05 07:25:50;;;;;;;95.30;40.13;;;;;;;;;;4982738;28;20064;-84
2021/07/05 07:28:35;;;;;;;117.03;53.97;;;;;;;;;;5025688;28;20044;-85
2021/07/05 07:31:20;;;;;;;100.88;43.88;;;;;;;;;;5000103;28;20041;-84
2021/07/05 07:34:06;;;;;;;105.05;42.70;;;;;;;;;;5003466;28;20052;-83
2021/07/05 07:36:55;;;;;;;106.53;40.92;;;;;;;;;;5023481;28;20044;-88
2021/07/05 07:39:54;;;;;;;99.03;44.65;;;;;;;;;;5035632;28;20277;-83
2021/07/05 07:42:40;;;;;;;67.35;38.17;;;;;;;;;;5016015;28;20275;-84
2021/07/05 07:45:25;;;;;;;81.30;45.13;;;;;;;;;;5012075;28;20475;-84
2021/07/05 07:48:10;;;;;;;96.55;43.70;;;;;;;;;;5016327;28;20040;-83
2021/07/05 07:50:55;;;;;;;100.60;49.13;;;;;;;;;;5022614;28;20047;-84
2021/07/05 07:53:40;;;;;;;112.10;44.78;;;;;;;;;;4996614;28;20037;-84
2021/07/05 07:56:26;;;;;;;116.10;50.75;;;;;;;;;;5029619;28;20518;-84
2021/07/05 07:59:12;;;;;;;138.77;57.67;;;;;;;;;;5022155;28;20032;-83
2021/07/05 08:01:57;;;;;;;162.63;65.07;;;;;;;;;;4990181;28;20617;-82
2021/07/05 08:04:42;;;;;;;215.18;76.45;;;;;;;;;;5008809;28;20495;-83
2021/07/05 08:07:27;;;;;;;168.25;66.90;;;;;;;;;;5032152;28;20044;-83
2021/07/05 08:10:14;;;;;;;206.00;77.93;;;;;;;;;;5030654;28;20043;-82
2021/07/05 08:13:02;;;;;;;148.68;69.93;;;;;;;;;;5050968;28;20044;-82
2021/07/05 08:15:52;;;;;;;158.15;70.10;;;;;;;;;;5040652;28;20036;-82
2021/07/05 08:18:37;;;;;;;141.38;62.28;;;;;;;;;;5041357;28;20036;-83
2021/07/05 08:21:22;;;;;;;132.75;61.70;;;;;;;;;;5039690;28;20538;-83
2021/07/05 08:24:08;;;;;;;139.13;61.45;;;;;;;;;;5027480;28;20113;-82
2021/07/05 08:26:53;;;;;;;145.95;66.10;;;;;;;;;;5028059;28;20057;-83
2021/07/05 08:29:38;;;;;;;127.05;60.33;;;;;;;;;;5020508;28;20307;-82
2021/07/05 08:32:23;;;;;;;191.95;68.18;;;;;;;;;;5020327;28;20045;-82
2021/07/05 08:35:08;;;;;;;108.03;50.30;;;;;;;;;;5017411;28;20052;-80
2021/07/05 08:37:53;;;;;;;174.60;57.65;;;;;;;;;;5027962;28;20048;-83
2021/07/05 08:40:38;;;;;;;145.75;55.88;;;;;;;;;;5054672;28;20040;-82
2021/07/05 08:43:27;;;;;;;122.05;49.28;;;;;;;;;;5042190;28;20052;-83
2021/07/05 08:46:13;;;;;;;113.43;48.40;;;;;;;;;;5032356;28;20431;-83
2021/07/05 08:48:59;;;;;;;105.88;48.58;;;;;;;;;;5022242;28;20515;-83
2021/07/05 08:51:44;;;;;;;85.22;43.00;;;;;;;;;;5023200;28;20048;-82
2021/07/05 08:54:29;;;;;;;70.10;38.70;;;;;;;;;;5001543;28;20570;-84
2021/07/05 08:57:27;;;;;;;80.97;38.28;;;;;;;;;;5026160;28;20048;-86
2021/07/05 09:00:23;;;;;;;82.95;37.90;;;;;;;;;;5015328;28;20168;-85
2021/07/05 09:03:08;;;;;;;94.75;41.40;;;;;;;;;;5014688;28;20064;-85
2021/07/05 09:06:12;;;;;;;144.45;53.95;;;;;;;;;;5016759;28;20040;-83
2021/07/05 09:09:00;;;;;;;86.75;42.33;;;;;;;;;;5009839;28;20049;-84
2021/07/05 09:11:46;;;;;;;108.15;44.38;;;;;;;;;;5017762;28;20048;-84
2021/07/05 09:14:31;;;;;;;202.45;74.05;;;;;;;;;;4969465;28;20555;-83
2021/07/05 09:17:16;;;;;;;137.77;48.33;;;;;;;;;;5023068;28;20040;-87
2021/07/05 09:20:04;;;;;;;142.05;45.40;;;;;;;;;;5022732;28;20411;-85
2021/07/05 09:23:07;;;;;;;80.32;38.03;;;;;;;;;;5020621;28;20056;-84
2021/07/05 09:25:53;;;;;;;164.82;59.80;;;;;;;;;;5012710;28;20589;-86
2021/07/05 09:28:38;;;;;;;110.47;49.50;;;;;;;;;;5019777;28;20056;-84
2021/07/05 09:31:31;;;;;;;77.55;38.42;;;;;;;;;;5024058;28;20041;-84
2021/07/05 09:34:19;;;;;;;83.57;42.22;;;;;;;;;;5012998;28;20060;-83
2021/07/05 09:37:14;;;;;;;87.28;43.38;;;;;;;;;;5007431;28;20449;-85
2021/07/05 09:40:05;;;;;;;64.18;33.97;;;;;;;;;;5031531;28;20247;-83
2021/07/05 09:42:51;;;;;;;72.78;35.15;;;;;;;;;;5006092;28;20044;-85
2021/07/05 09:45:37;;;;;;;75.57;35.72;;;;;;;;;;4991448;28;20559;-83
2021/07/05 09:48:24;;;;;;;65.47;37.15;;;;;;;;;;5012998;28;20045;-86
2021/07/05 09:51:09;;;;;;;71.88;37.92;;;;;;;;;;5001547;28;20052;-83
2021/07/05 09:53:57;;;;;;;65.45;35.17;;;;;;;;;;5018232;28;20045;-85
2021/07/05 09:56:42;;;;;;;79.13;42.67;;;;;;;;;;5000185;28;20048;-84
2021/07/05 09:59:28;;;;;;;91.43;39.78;;;;;;;;;;5017775;28;20049;-83
2021/07/05 10:02:15;;;;;;;57.90;33.95;;;;;;;;;;5013937;28;20510;-84
2021/07/05 10:05:10;;;;;;;46.92;32.00;;;;;;;;;;5012999;28;20040;-82
2021/07/05 10:08:01;;;;;;;75.72;38.15;;;;;;;;;;5021117;28;20427;-84
2021/07/05 10:10:47;;;;;;;52.67;35.40;;;;;;;;;;5033030;28;20044;-88
2021/07/05 10:13:33;;;;;;;107.30;43.70;;;;;;;;;;5017902;28;20047;-86
2021/07/05 10:16:25;;;;;;;60.05;36.40;;;;;;;;;;4997850;28;20040;-83
2021/07/05 10:19:14;;;;;;;75.47;40.33;;;;;;;;;;5014388;28;20078;-83
2021/07/05 10:21:59;;;;;;;98.63;43.17;;;;;;;;;;5017585;28;20052;-83
2021/07/05 10:24:45;;;;;;;90.35;41.95;;;;;;;;;;5019781;28;20045;-84
2021/07/05 10:27:30;;;;;;;90.68;37.70;;;;;;;;;;4996319;28;21407;-85
2021/07/05 10:30:16;;;;;;;79.75;36.22;;;;;;;;;;4997034;28;20105;-85
2021/07/05 10:33:02;;;;;;;52.53;30.20;;;;;;;;;;5019947;28;20048;-90
2021/07/05 10:35:55;;;;;;;43.25;27.60;;;;;;;;;;5043360;28;20060;-86
2021/07/05 10:38:44;;;;;;;62.42;31.02;;;;;;;;;;5028527;28;20044;-94
2021/07/05 10:41:38;;;;;;;55.10;32.72;;;;;;;;;;5024442;28;20039;-87
2021/07/05 10:44:43;;;;;;;36.63;25.77;;;;;;;;;;5041292;28;20044;-92
2021/07/05 10:47:48;;;;;;;42.03;26.50;;;;;;;;;;5010733;28;20055;-88
2021/07/05 10:50:37;;;;;;;70.05;26.75;;;;;;;;;;5038524;28;20048;-88
2021/07/05 10:53:33;;;;;;;36.22;24.00;;;;;;;;;;5024597;28;20063;-88
2021/07/05 10:56:29;;;;;;;36.70;23.67;;;;;;;;;;5016846;28;20827;-86
2021/07/05 10:59:18;;;;;;;34.88;23.73;;;;;;;;;;5006624;28;20573;-83
2021/07/05 11:02:23;;;;;;;34.95;23.90;;;;;;;;;;5025048;28;20526;-86
2021/07/05 11:05:27;;;;;;;91.72;28.45;;;;;;;;;;5022283;28;20419;-82
2021/07/05 11:08:17;;;;;;;44.30;25.90;;;;;;;;;;4992613;28;20088;-84
2021/07/05 11:11:24;;;;;;;88.50;30.10;;;;;;;;;;5025091;28;20051;-88
2021/07/05 11:14:16;;;;;;;102.72;33.60;;;;;;;;;;5011276;28;20092;-92
2021/07/05 11:17:29;;;;;;;90.05;36.78;;;;;;;;;;5021925;28;20048;-84
2021/07/05 11:20:15;;;;;;;60.53;24.75;;;;;;;;;;5008616;28;20412;-85
2021/07/05 11:23:01;;;;;;;49.10;25.98;;;;;;;;;;5028098;28;20059;-88
2021/07/05 11:25:48;;;;;;;40.60;25.27;;;;;;;;;;5019477;28;20047;-83
2021/07/05 11:28:38;;;;;;;55.13;27.20;;;;;;;;;;5003854;28;20068;-86
2021/07/05 11:31:23;;;;;;;58.60;27.88;;;;;;;;;;5007503;28;20048;-85
2021/07/05 11:34:26;;;;;;;48.17;21.90;;;;;;;;;;5023703;28;20048;-89
2021/07/05 11:37:14;;;;;;;29.02;18.35;;;;;;;;;;5022824;28;20045;-85
2021/07/05 11:39:59;;;;;;;47.53;21.40;;;;;;;;;;5008078;28;20403;-87
2021/07/05 11:42:44;;;;;;;26.77;17.42;;;;;;;;;;5008107;28;20060;-82
2021/07/05 11:46:01;;;;;;;17.48;13.90;;;;;;;;;;5025068;28;20041;-88
2021/07/05 11:48:46;;;;;;;22.00;15.38;;;;;;;;;;5021208;28;20572;-85
2021/07/05 11:51:49;;;;;;;27.77;15.82;;;;;;;;;;5032177;28;20052;-88
2021/07/05 11:54:36;;;;;;;22.58;14.73;;;;;;;;;;5020621;28;20043;-87
2021/07/05 11:57:21;;;;;;;26.42;16.67;;;;;;;;;;4959015;28;20045;-89
2021/07/05 12:00:06;;;;;;;29.27;16.00;;;;;;;;;;5004700;28;20578;-86
2021/07/05 12:03:05;;;;;;;24.67;17.27;;;;;;;;;;5018975;28;20060;-85
2021/07/05 12:05:57;;;;;;;25.10;16.63;;;;;;;;;;5009420;28;20041;-88
2021/07/05 12:08:50;;;;;;;23.77;18.08;;;;;;;;;;4996946;28;20407;-86
2021/07/05 12:11:47;;;;;;;23.40;16.40;;;;;;;;;;5020334;28;20048;-85
2021/07/05 12:14:32;;;;;;;27.65;19.27;;;;;;;;;;5022506;28;20060;-83
2021/07/05 12:17:19;;;;;;;27.30;17.75;;;;;;;;;;5021275;28;20435;-93
2021/07/05 12:20:05;;;;;;;23.52;16.27;;;;;;;;;;5021634;28;20577;-89
2021/07/05 12:22:50;;;;;;;27.30;18.55;;;;;;;;;;5015500;28;20139;-89
2021/07/05 12:25:35;;;;;;;30.67;21.17;;;;;;;;;;5017896;28;20047;-87
2021/07/05 12:28:20;;;;;;;32.53;21.83;;;;;;;;;;5021158;28;20545;-90
2021/07/05 12:31:06;;;;;;;24.45;17.63;;;;;;;;;;5001454;28;20048;-84
2021/07/05 12:33:51;;;;;;;21.45;14.65;;;;;;;;;;5028827;28;20032;-86
2021/07/05 12:36:36;;;;;;;18.10;14.10;;;;;;;;;;5019353;28;20060;-86
2021/07/05 12:39:22;;;;;;;21.80;15.57;;;;;;;;;;5018377;28;20048;-83
2021/07/05 12:42:20;;;;;;;21.63;15.50;;;;;;;;;;5012835;28;20051;-87
2021/07/05 12:45:10;;;;;;;18.35;14.18;;;;;;;;;;5016573;28;20063;-85
2021/07/05 12:47:57;;;;;;;19.10;14.13;;;;;;;;;;5015877;28;20392;-81
2021/07/05 12:50:48;;;;;;;20.30;14.82;;;;;;;;;;5014870;28;20870;-84
2021/07/05 12:53:34;;;;;;;16.88;13.45;;;;;;;;;;5012444;28;20403;-85
2021/07/05 12:56:22;;;;;;;15.70;12.43;;;;;;;;;;5015927;28;21785;-85
2021/07/05 12:59:15;;;;;;;19.73;15.98;;;;;;;;;;5019559;28;21022;-82
2021/07/05 13:02:00;;;;;;;23.33;17.70;;;;;;;;;;5018560;28;20097;-85
2021/07/05 13:04:45;;;;;;;23.08;16.27;;;;;;;;;;5017220;28;20051;-82
2021/07/05 13:07:30;;;;;;;24.60;17.67;;;;;;;;;;5019896;28;20056;-87
2021/07/05 13:10:22;;;;;;;25.88;19.38;;;;;;;;;;4976425;28;20115;-86
2021/07/05 13:13:11;;;;;;;22.48;17.77;;;;;;;;;;5027942;28;20055;-90
2021/07/05 13:18:22;;;;;;;31.67;21.38;;;;;;;;;;5121269;27;20520;-73
2021/07/05 13:21:08;;;;;;;33.33;23.65;;;;;;;;;;5116979;27;20036;-74
2021/07/05 13:23:53;;;;;;;33.90;23.70;;;;;;;;;;5109950;27;20035;-76
2021/07/05 13:26:38;;;;;;;35.78;24.45;;;;;;;;;;5120418;27;20035;-73
2021/07/05 13:29:34;;;;;;;33.72;24.30;;;;;;;;;;5117056;27;20039;-75
2021/07/05 13:32:20;;;;;;;40.20;26.08;;;;;;;;;;5117781;27;20036;-74
2021/07/05 13:35:08;;;;;;;37.10;25.98;;;;;;;;;;5114017;27;20512;-76
2021/07/05 13:37:57;;;;;;;36.40;25.23;;;;;;;;;;5117584;27;20046;-78
2021/07/05 13:40:47;;;;;;;35.78;24.67;;;;;;;;;;5111208;27;20037;-75
2021/07/05 13:43:33;;;;;;;40.22;23.70;;;;;;;;;;5117147;27;20349;-74
2021/07/05 13:46:19;;;;;;;39.45;26.33;;;;;;;;;;5102772;27;20043;-76
2021/07/05 13:49:13;;;;;;;37.03;27.23;;;;;;;;;;5096966;27;20046;-77
2021/07/05 13:51:58;;;;;;;40.80;27.85;;;;;;;;;;5115430;27;20046;-73
2021/07/05 13:54:43;;;;;;;38.40;28.23;;;;;;;;;;5115706;27;20039;-76
2021/07/05 13:57:28;;;;;;;42.95;28.13;;;;;;;;;;5117180;27;20054;-74
2021/07/05 14:00:13;;;;;;;37.17;27.35;;;;;;;;;;5110599;27;20157;-73
2021/07/05 14:02:58;;;;;;;34.45;25.90;;;;;;;;;;5124919;27;20110;-74
2021/07/05 14:05:45;;;;;;;32.28;24.88;;;;;;;;;;5115923;27;20046;-75
2021/07/05 14:08:30;;;;;;;33.47;24.83;;;;;;;;;;5117257;27;20034;-74
2021/07/05 14:11:19;;;;;;;35.28;25.33;;;;;;;;;;5117243;27;20413;-74
2021/07/05 14:14:04;;;;;;;36.63;25.55;;;;;;;;;;5113393;27;20040;-77
2021/07/05 14:16:48;;;;;;;34.72;24.55;;;;;;;;;;5113997;27;20039;-74
2021/07/05 14:19:34;;;;;;;39.63;24.77;;;;;;;;;;5116480;27;20484;-74
2021/07/05 14:22:19;;;;;;;37.95;26.60;;;;;;;;;;5112949;27;20417;-74
2021/07/05 14:25:08;;;;;;;38.90;27.52;;;;;;;;;;5091427;27;20051;-75
2021/07/05 14:27:56;;;;;;;30.83;24.05;;;;;;;;;;5080060;27;20050;-74
2021/07/05 14:30:42;;;;;;;31.23;23.20;;;;;;;;;;5108233;27;20027;-75
2021/07/05 14:33:28;;;;;;;31.45;23.83;;;;;;;;;;5101481;28;20039;-76
2021/07/05 14:36:15;;;;;;;29.88;22.75;;;;;;;;;;5103244;27;20043;-77
2021/07/05 14:39:01;;;;;;;31.92;23.15;;;;;;;;;;5102548;27;20484;-74
2021/07/05 14:41:46;;;;;;;24.67;19.75;;;;;;;;;;5103560;27;20043;-73
2021/07/05 14:44:30;;;;;;;23.50;18.23;;;;;;;;;;5101671;28;20056;-75
2021/07/05 14:47:20;;;;;;;24.77;17.77;;;;;;;;;;5103904;27;20062;-74
2021/07/05 14:50:07;;;;;;;23.15;18.15;;;;;;;;;;5102914;27;20039;-75
